createdAt,value
2022-11-02T00:01:42.700Z,7.80
2022-11-02T00:04:06.261Z,7.70
2022-11-02T00:06:29.889Z,7.70
2022-11-02T00:08:53.417Z,7.70
2022-11-02T00:11:17.034Z,7.70
2022-11-02T00:13:40.610Z,7.70
2022-11-02T00:16:05.546Z,7.60
2022-11-02T00:18:30.982Z,7.60
2022-11-02T00:20:54.828Z,7.60
2022-11-02T00:23:18.356Z,7.60
2022-11-02T00:25:48.724Z,7.60
2022-11-02T00:28:12.586Z,7.60
2022-11-02T00:30:36.185Z,7.50
2022-11-02T00:32:59.763Z,7.50
2022-11-02T00:35:24.806Z,7.50
2022-11-02T00:37:48.457Z,7.50
2022-11-02T00:40:14.274Z,7.50
2022-11-02T00:42:37.866Z,7.40
2022-11-02T00:45:01.711Z,7.50
2022-11-02T00:47:25.377Z,7.40
2022-11-02T00:49:50.455Z,7.40
2022-11-02T00:52:15.808Z,7.30
2022-11-02T00:54:42.908Z,7.30
2022-11-02T00:57:06.584Z,7.30
2022-11-02T00:59:30.206Z,7.30
2022-11-02T01:01:54.287Z,7.30
2022-11-02T01:04:18.622Z,7.30
2022-11-02T01:06:42.893Z,7.30
2022-11-02T01:09:07.997Z,7.30
2022-11-02T01:11:31.542Z,7.20
2022-11-02T01:13:55.440Z,7.20
2022-11-02T01:16:19.146Z,7.20
2022-11-02T01:18:43.685Z,7.20
2022-11-02T01:21:07.490Z,7.20
2022-11-02T01:23:33.903Z,7.20
2022-11-02T01:25:58.812Z,7.10
2022-11-02T01:28:22.482Z,7.10
2022-11-02T01:30:49.234Z,7.10
2022-11-02T01:33:12.981Z,7.10
2022-11-02T01:35:38.534Z,7.10
2022-11-02T01:38:02.434Z,7.10
2022-11-02T01:40:27.085Z,7.10
2022-11-02T01:42:52.085Z,7.10
2022-11-02T01:45:16.126Z,7.00
2022-11-02T01:47:42.444Z,7.00
2022-11-02T01:50:11.917Z,7.00
2022-11-02T01:52:38.422Z,7.00
2022-11-02T01:55:08.976Z,7.00
2022-11-02T01:57:35.217Z,7.00
2022-11-02T02:00:07.274Z,6.90
2022-11-02T02:02:46.306Z,6.90
2022-11-02T02:05:13.318Z,6.90
2022-11-02T02:07:40.081Z,6.90
2022-11-02T02:10:04.280Z,6.90
2022-11-02T02:12:32.120Z,6.80
2022-11-02T02:14:56.029Z,6.90
2022-11-02T02:17:33.180Z,6.80
2022-11-02T02:20:03.976Z,6.80
2022-11-02T02:23:16.729Z,6.80
2022-11-02T02:26:08.870Z,6.80
2022-11-02T02:28:42.780Z,6.80
2022-11-02T02:31:16.086Z,6.70
2022-11-02T02:33:47.880Z,6.70
2022-11-02T02:36:21.647Z,6.80
2022-11-02T02:38:49.817Z,6.70
2022-11-02T02:41:20.555Z,6.70
2022-11-02T02:43:51.275Z,6.70
2022-11-02T02:46:21.681Z,6.70
2022-11-02T02:48:47.860Z,6.70
2022-11-02T02:51:16.019Z,6.60
2022-11-02T02:53:44.914Z,6.60
2022-11-02T02:56:13.685Z,6.60
2022-11-02T02:58:43.888Z,6.60
2022-11-02T03:01:13.380Z,6.60
2022-11-02T03:03:37.442Z,6.60
2022-11-02T03:06:16.464Z,6.60
2022-11-02T03:08:50.428Z,6.60
2022-11-02T03:11:17.412Z,6.60
2022-11-02T03:14:02.426Z,6.60
2022-11-02T03:16:48.003Z,6.60
2022-11-02T03:19:24.092Z,6.60
2022-11-02T03:21:56.870Z,6.60
2022-11-02T03:24:28.609Z,6.60
2022-11-02T03:27:08.224Z,6.60
2022-11-02T03:29:41.520Z,6.60
2022-11-02T03:32:13.527Z,6.50
2022-11-02T03:34:42.784Z,6.50
2022-11-02T03:37:18.075Z,6.50
2022-11-02T03:39:46.664Z,6.50
2022-11-02T03:42:15.274Z,6.50
2022-11-02T03:44:41.317Z,6.50
2022-11-02T03:47:12.717Z,6.40
2022-11-02T03:49:38.830Z,6.40
2022-11-02T03:52:06.798Z,6.40
2022-11-02T03:54:44.538Z,6.40
2022-11-02T03:57:11.914Z,6.40
2022-11-02T03:59:36.709Z,6.40
2022-11-02T04:02:02.781Z,6.40
2022-11-02T04:04:28.807Z,6.40
2022-11-02T04:06:54.321Z,6.30
2022-11-02T04:09:18.946Z,6.30
2022-11-02T04:12:00.365Z,6.30
2022-11-02T04:14:41.415Z,6.30
2022-11-02T04:19:58.920Z,6.30
2022-11-02T04:22:41.229Z,6.30
2022-11-02T04:25:19.663Z,6.30
2022-11-02T04:28:10.478Z,6.30
2022-11-02T04:30:42.739Z,6.30
2022-11-02T04:33:23.450Z,6.30
2022-11-02T04:35:54.213Z,6.30
2022-11-02T04:38:36.012Z,6.30
2022-11-02T04:41:15.021Z,6.30
2022-11-02T04:43:40.528Z,6.30
2022-11-02T04:46:04.828Z,6.30
2022-11-02T04:48:29.771Z,6.20
2022-11-02T04:50:55.071Z,6.20
2022-11-02T04:53:18.698Z,6.20
2022-11-02T04:55:42.350Z,6.20
2022-11-02T04:58:06.700Z,6.20
2022-11-02T05:00:30.579Z,6.20
2022-11-02T05:02:54.994Z,6.20
2022-11-02T05:05:20.382Z,6.20
2022-11-02T05:07:47.792Z,6.20
2022-11-02T05:10:12.135Z,6.20
2022-11-02T05:12:36.500Z,6.20
2022-11-02T05:15:00.141Z,6.30
2022-11-02T05:17:23.933Z,6.30
2022-11-02T05:19:47.662Z,6.30
2022-11-02T05:22:11.425Z,6.30
2022-11-02T05:24:36.461Z,6.30
2022-11-02T05:27:02.162Z,6.30
2022-11-02T05:29:28.018Z,6.40
2022-11-02T05:31:51.620Z,6.40
2022-11-02T05:34:15.474Z,6.40
2022-11-02T05:36:39.270Z,6.40
2022-11-02T05:39:03.154Z,6.50
2022-11-02T05:41:29.383Z,6.50
2022-11-02T05:43:55.421Z,6.50
2022-11-02T05:46:20.692Z,6.60
2022-11-02T05:48:44.349Z,6.60
2022-11-02T05:51:08.428Z,6.70
2022-11-02T05:53:37.357Z,6.70
2022-11-02T05:56:02.044Z,6.70
2022-11-02T05:58:27.026Z,6.70
2022-11-02T06:00:50.621Z,6.70
2022-11-02T06:03:14.170Z,6.70
2022-11-02T06:05:37.864Z,6.70
2022-11-02T06:08:02.250Z,6.70
2022-11-02T06:10:25.893Z,6.70
2022-11-02T06:12:55.830Z,6.70
2022-11-02T06:15:20.975Z,6.70
2022-11-02T06:17:44.514Z,6.60
2022-11-02T06:20:10.453Z,6.60
2022-11-02T06:22:41.082Z,6.60
2022-11-02T06:25:04.856Z,6.60
2022-11-02T06:27:28.515Z,6.60
2022-11-02T06:29:52.180Z,6.70
2022-11-02T06:32:17.155Z,6.70
2022-11-02T06:34:40.877Z,6.70
2022-11-02T06:37:04.426Z,6.70
2022-11-02T06:39:28.037Z,6.70
2022-11-02T06:41:51.578Z,6.80
2022-11-02T06:44:15.168Z,6.80
2022-11-02T06:46:38.955Z,6.80
2022-11-02T06:49:04.046Z,6.80
2022-11-02T06:51:27.589Z,6.80
2022-11-02T06:53:51.246Z,6.90
2022-11-02T06:56:15.097Z,6.90
2022-11-02T06:58:38.737Z,6.90
2022-11-02T07:01:05.067Z,7.00
2022-11-02T07:03:29.477Z,7.00
2022-11-02T07:05:55.307Z,7.00
2022-11-02T07:08:18.930Z,7.10
2022-11-02T07:10:42.545Z,7.20
2022-11-02T07:13:06.561Z,7.20
2022-11-02T07:15:30.578Z,7.20
2022-11-02T07:17:54.781Z,7.30
2022-11-02T07:20:19.252Z,7.30
2022-11-02T07:22:45.208Z,7.40
2022-11-02T07:25:09.533Z,7.50
2022-11-02T07:27:33.102Z,7.60
2022-11-02T07:29:56.678Z,7.70
2022-11-02T07:32:20.322Z,7.90
2022-11-02T07:34:43.828Z,8.10
2022-11-02T07:37:07.472Z,8.30
2022-11-02T07:39:32.389Z,8.50
2022-11-02T07:41:55.984Z,8.70
2022-11-02T07:44:21.262Z,8.90
2022-11-02T07:46:50.729Z,9.10
2022-11-02T07:49:18.706Z,9.30
2022-11-02T07:51:44.793Z,9.40
2022-11-02T07:54:08.409Z,9.60
2022-11-02T07:56:33.376Z,9.70
2022-11-02T07:58:56.945Z,9.90
2022-11-02T08:01:20.730Z,10.00
2022-11-02T08:03:44.342Z,10.10
2022-11-02T08:06:08.571Z,10.10
2022-11-02T08:08:32.169Z,10.20
2022-11-02T08:10:55.901Z,10.30
2022-11-02T08:13:23.109Z,10.40
2022-11-02T08:15:49.711Z,10.40
2022-11-02T08:18:16.437Z,10.50
2022-11-02T08:20:40.189Z,10.60
2022-11-02T08:23:04.354Z,10.70
2022-11-02T08:25:28.541Z,10.80
2022-11-02T08:27:52.105Z,10.90
2022-11-02T08:30:17.297Z,11.00
2022-11-02T08:32:40.906Z,11.00
2022-11-02T08:35:05.180Z,11.10
2022-11-02T08:37:28.708Z,11.10
2022-11-02T08:39:52.349Z,11.20
2022-11-02T08:42:15.864Z,11.20
2022-11-02T08:44:42.479Z,11.30
2022-11-02T08:47:09.480Z,11.40
2022-11-02T08:49:33.434Z,11.60
2022-11-02T08:51:56.952Z,11.70
2022-11-02T08:54:20.570Z,11.90
2022-11-02T08:56:44.143Z,12.30
2022-11-02T08:59:07.974Z,12.50
2022-11-02T09:01:31.641Z,12.80
2022-11-02T09:03:56.699Z,12.90
2022-11-02T09:06:20.293Z,13.10
2022-11-02T09:08:43.940Z,13.50
2022-11-02T09:11:07.614Z,14.00
2022-11-02T09:13:31.834Z,14.30
2022-11-02T09:15:58.014Z,14.80
2022-11-02T09:18:22.207Z,14.70
2022-11-02T09:20:48.621Z,14.90
2022-11-02T09:23:12.290Z,15.10
2022-11-02T09:25:35.807Z,15.30
2022-11-02T09:27:59.979Z,15.70
2022-11-02T09:30:25.198Z,15.90
2022-11-02T09:32:56.238Z,16.10
2022-11-02T09:35:20.180Z,15.90
2022-11-02T09:37:50.857Z,15.80
2022-11-02T09:40:16.435Z,16.10
2022-11-02T09:42:54.802Z,16.00
2022-11-02T09:45:19.813Z,16.30
2022-11-02T09:48:16.458Z,16.30
2022-11-02T09:50:49.349Z,16.40
2022-11-02T09:53:20.993Z,16.30
2022-11-02T09:55:51.313Z,16.20
2022-11-02T09:58:22.108Z,16.20
2022-11-02T10:00:50.762Z,16.20
2022-11-02T10:03:29.864Z,16.30
2022-11-02T10:05:58.446Z,16.50
2022-11-02T10:08:40.978Z,16.70
2022-11-02T10:11:24.119Z,16.80
2022-11-02T10:13:56.664Z,16.80
2022-11-02T10:16:24.472Z,17.10
2022-11-02T10:18:50.523Z,17.30
2022-11-02T10:21:18.723Z,17.00
2022-11-02T10:23:50.408Z,17.00
2022-11-02T10:26:20.596Z,17.00
2022-11-02T10:28:50.093Z,16.80
2022-11-02T10:31:25.261Z,16.90
2022-11-02T10:33:50.732Z,16.80
2022-11-02T10:36:31.454Z,16.60
2022-11-02T10:39:14.141Z,16.60
2022-11-02T10:41:56.599Z,16.70
2022-11-02T10:44:40.284Z,16.70
2022-11-02T10:47:14.582Z,16.70
2022-11-02T10:50:12.711Z,16.50
2022-11-02T10:52:39.055Z,16.50
2022-11-02T10:55:04.325Z,16.40
2022-11-02T10:57:29.291Z,16.40
2022-11-02T11:00:28.169Z,16.40
2022-11-02T11:03:14.823Z,16.20
2022-11-02T11:05:57.000Z,15.90
2022-11-02T11:08:38.873Z,15.80
2022-11-02T11:11:30.041Z,15.50
2022-11-02T11:16:50.230Z,15.20
2022-11-02T11:19:38.598Z,15.20
2022-11-02T11:22:03.578Z,15.20
2022-11-02T11:24:30.739Z,15.10
2022-11-02T11:27:19.502Z,15.10
2022-11-02T11:29:49.923Z,15.10
2022-11-02T11:32:18.564Z,15.10
2022-11-02T11:34:42.617Z,15.10
2022-11-02T11:37:10.018Z,15.10
2022-11-02T11:39:34.603Z,15.00
2022-11-02T11:41:59.354Z,15.00
2022-11-02T11:44:24.797Z,15.00
2022-11-02T11:46:50.989Z,15.10
2022-11-02T11:49:35.837Z,15.00
2022-11-02T11:52:07.289Z,15.00
2022-11-02T11:54:31.712Z,15.00
2022-11-02T11:56:57.857Z,14.90
2022-11-02T11:59:32.254Z,14.90
2022-11-02T12:01:59.505Z,14.90
2022-11-02T12:04:35.650Z,14.80
2022-11-02T12:07:27.046Z,14.90
2022-11-02T12:10:04.378Z,14.90
2022-11-02T12:12:44.769Z,15.00
2022-11-02T12:15:27.605Z,15.00
2022-11-02T12:18:13.479Z,15.10
2022-11-02T12:20:54.836Z,15.10
2022-11-02T12:23:37.641Z,15.30
2022-11-02T12:26:19.301Z,15.30
2022-11-02T12:28:51.621Z,15.40
2022-11-02T12:31:31.647Z,15.30
2022-11-02T12:34:17.810Z,15.30
2022-11-02T12:37:31.684Z,15.30
2022-11-02T12:39:57.842Z,15.40
2022-11-02T12:42:29.446Z,15.30
2022-11-02T12:45:23.177Z,15.30
2022-11-02T12:47:59.134Z,15.30
2022-11-02T12:50:38.227Z,15.30
2022-11-02T12:53:22.625Z,15.30
2022-11-02T12:55:51.425Z,15.40
2022-11-02T12:58:22.584Z,15.50
2022-11-02T13:00:49.561Z,15.50
2022-11-02T13:03:31.812Z,15.60
2022-11-02T13:06:04.959Z,15.40
2022-11-02T13:08:37.888Z,15.50
2022-11-02T13:11:08.634Z,15.50
2022-11-02T13:13:39.969Z,15.30
2022-11-02T13:16:06.574Z,15.30
2022-11-02T13:18:39.951Z,15.30
2022-11-02T13:21:06.138Z,15.30
2022-11-02T13:23:37.852Z,15.20
2022-11-02T13:26:06.498Z,15.20
2022-11-02T13:28:38.256Z,15.20
2022-11-02T13:31:06.338Z,15.20
2022-11-02T13:33:45.875Z,15.10
2022-11-02T13:36:10.390Z,15.30
2022-11-02T13:38:41.407Z,15.30
2022-11-02T13:41:33.014Z,15.20
2022-11-02T13:44:53.381Z,15.10
2022-11-02T13:47:58.403Z,15.00
2022-11-02T13:50:26.920Z,14.90
2022-11-02T13:52:58.506Z,14.80
2022-11-02T13:55:27.157Z,14.80
2022-11-02T13:57:56.931Z,14.70
2022-11-02T14:00:37.573Z,14.70
2022-11-02T14:03:09.305Z,14.60
2022-11-02T14:05:37.281Z,14.60
2022-11-02T14:08:03.488Z,14.60
2022-11-02T14:10:27.519Z,14.50
2022-11-02T14:12:52.055Z,14.50
2022-11-02T14:15:53.886Z,14.50
2022-11-02T14:18:33.421Z,14.40
2022-11-02T14:20:58.964Z,14.40
2022-11-02T14:23:41.700Z,14.40
2022-11-02T14:26:05.541Z,14.30
2022-11-02T14:28:34.728Z,14.30
2022-11-02T14:31:17.682Z,14.20
2022-11-02T14:34:27.683Z,14.20
2022-11-02T14:37:11.694Z,14.10
2022-11-02T14:39:48.187Z,14.10
2022-11-02T14:42:41.425Z,14.00
2022-11-02T14:45:24.333Z,14.00
2022-11-02T14:47:48.030Z,13.90
2022-11-02T14:50:18.841Z,13.90
2022-11-02T14:52:56.786Z,13.80
2022-11-02T14:55:25.901Z,13.80
2022-11-02T14:57:56.324Z,13.80
2022-11-02T15:00:22.944Z,13.70
2022-11-02T15:02:47.220Z,13.60
2022-11-02T15:05:24.893Z,13.60
2022-11-02T15:07:54.752Z,13.50
2022-11-02T15:10:53.622Z,13.50
2022-11-02T15:13:38.317Z,13.50
2022-11-02T15:16:25.339Z,13.40
2022-11-02T15:18:49.268Z,13.30
2022-11-02T15:21:31.445Z,13.40
2022-11-02T15:24:16.588Z,13.30
2022-11-02T15:26:48.811Z,13.30
2022-11-02T15:29:23.844Z,13.20
2022-11-02T15:31:54.744Z,13.10
2022-11-02T15:34:20.709Z,13.10
2022-11-02T15:36:45.750Z,13.10
2022-11-02T15:39:13.638Z,13.00
2022-11-02T15:41:45.242Z,12.90
2022-11-02T15:44:49.142Z,12.90
2022-11-02T15:47:27.392Z,12.80
2022-11-02T15:50:20.078Z,12.80
2022-11-02T15:53:21.764Z,12.70
2022-11-02T15:55:55.106Z,12.60
2022-11-02T15:58:33.385Z,12.60
2022-11-02T16:01:15.215Z,12.60
2022-11-02T16:03:39.235Z,12.50
2022-11-02T16:06:06.011Z,12.40
2022-11-02T16:08:35.042Z,12.40
2022-11-02T16:11:13.837Z,12.30
2022-11-02T16:13:55.701Z,12.30
2022-11-02T16:16:22.075Z,12.20
2022-11-02T16:18:50.982Z,12.10
2022-11-02T16:21:17.371Z,12.10
2022-11-02T16:23:44.261Z,12.00
2022-11-02T16:26:19.645Z,12.00
2022-11-02T16:28:43.327Z,11.90
2022-11-02T16:31:19.020Z,11.90
2022-11-02T16:33:45.794Z,11.90
2022-11-02T16:36:12.073Z,11.80
2022-11-02T16:38:37.497Z,11.80
2022-11-02T16:41:02.584Z,11.80
2022-11-02T16:43:28.317Z,11.70
2022-11-02T16:45:52.337Z,11.70
2022-11-02T16:48:22.869Z,11.60
2022-11-02T16:51:03.136Z,11.50
2022-11-02T16:53:30.251Z,11.50
2022-11-02T16:55:59.409Z,11.40
2022-11-02T16:58:26.933Z,11.30
2022-11-02T17:00:59.293Z,11.30
2022-11-02T17:03:27.794Z,11.20
2022-11-02T17:05:52.356Z,11.20
2022-11-02T17:08:30.001Z,11.00
2022-11-02T17:10:57.208Z,11.00
2022-11-02T17:13:22.174Z,10.90
2022-11-02T17:15:50.554Z,10.90
2022-11-02T17:18:26.978Z,10.80
2022-11-02T17:21:32.123Z,10.70
2022-11-02T17:23:58.197Z,10.70
2022-11-02T17:26:45.466Z,10.60
2022-11-02T17:29:34.904Z,10.60
2022-11-02T17:32:01.548Z,10.50
2022-11-02T17:34:25.410Z,10.40
2022-11-02T17:36:50.877Z,10.30
2022-11-02T17:39:16.269Z,10.20
2022-11-02T17:41:57.409Z,10.20
2022-11-02T17:44:20.952Z,10.10
2022-11-02T17:46:46.088Z,10.10
2022-11-02T17:49:11.315Z,10.00
2022-11-02T17:51:34.949Z,9.90
2022-11-02T17:53:58.551Z,9.90
2022-11-02T17:56:22.189Z,9.80
2022-11-02T17:58:45.786Z,9.70
2022-11-02T18:01:13.414Z,9.60
2022-11-02T18:03:37.142Z,9.50
2022-11-02T18:06:02.109Z,9.50
2022-11-02T18:08:25.744Z,9.40
2022-11-02T18:10:52.085Z,9.40
2022-11-02T18:13:17.434Z,9.30
2022-11-02T18:15:41.422Z,9.30
2022-11-02T18:18:05.262Z,9.30
2022-11-02T18:20:31.287Z,9.30
2022-11-02T18:22:57.084Z,9.20
2022-11-02T18:27:49.792Z,9.20
2022-11-02T18:30:16.511Z,9.20
2022-11-02T18:32:40.613Z,9.10
2022-11-02T18:35:04.483Z,9.10
2022-11-02T18:37:28.666Z,9.00
2022-11-02T18:39:53.616Z,9.00
2022-11-02T18:42:17.207Z,9.00
2022-11-02T18:44:40.866Z,8.90
2022-11-02T18:47:04.711Z,8.90
2022-11-02T18:49:28.377Z,8.80
2022-11-02T18:51:52.088Z,8.80
2022-11-02T18:54:16.961Z,8.70
2022-11-02T18:56:42.049Z,8.60
2022-11-02T18:59:06.129Z,8.60
2022-11-02T19:01:30.109Z,8.60
2022-11-02T19:03:55.904Z,8.50
2022-11-02T19:06:38.245Z,8.40
2022-11-02T19:09:20.165Z,8.40
2022-11-02T19:11:46.662Z,8.30
2022-11-02T19:14:10.189Z,8.20
2022-11-02T19:16:33.837Z,8.20
2022-11-02T19:18:57.433Z,8.10
2022-11-02T19:21:21.389Z,8.10
2022-11-02T19:23:45.198Z,8.00
2022-11-02T19:26:09.322Z,8.00
2022-11-02T19:28:34.881Z,7.90
2022-11-02T19:30:58.521Z,7.90
2022-11-02T19:33:22.131Z,7.80
2022-11-02T19:35:55.616Z,7.80
2022-11-02T19:38:19.181Z,7.70
2022-11-02T19:40:42.712Z,7.70
2022-11-02T19:43:06.629Z,7.60
2022-11-02T19:45:31.756Z,7.60
2022-11-02T19:47:55.320Z,7.50
2022-11-02T19:50:18.969Z,7.50
2022-11-02T19:52:42.541Z,7.50
2022-11-02T19:55:07.302Z,7.50
2022-11-02T19:57:33.311Z,7.40
2022-11-02T19:59:57.119Z,7.40
2022-11-02T20:02:22.097Z,7.30
2022-11-02T20:04:47.116Z,7.30
2022-11-02T20:07:10.698Z,7.20
2022-11-02T20:09:34.245Z,7.20
2022-11-02T20:11:59.219Z,7.10
2022-11-02T20:14:22.778Z,7.00
2022-11-02T20:16:58.270Z,7.10
2022-11-02T20:19:24.013Z,7.10
2022-11-02T20:21:47.550Z,7.00
2022-11-02T20:24:11.935Z,7.00
2022-11-02T20:26:38.513Z,6.90
2022-11-02T20:29:04.118Z,6.90
2022-11-02T20:31:30.152Z,6.90
2022-11-02T20:33:54.458Z,6.80
2022-11-02T20:36:19.400Z,6.80
2022-11-02T20:38:43.169Z,6.80
2022-11-02T20:41:09.631Z,6.70
2022-11-02T20:43:33.311Z,6.60
2022-11-02T20:46:35.454Z,6.60
2022-11-02T20:48:50.279Z,6.50
2022-11-02T20:51:15.208Z,6.50
2022-11-02T20:53:40.741Z,6.50
2022-11-02T20:56:04.670Z,6.40
2022-11-02T20:58:28.605Z,6.40
2022-11-02T21:00:52.932Z,6.30
2022-11-02T21:03:16.829Z,6.30
2022-11-02T21:05:40.778Z,6.30
2022-11-02T21:08:04.413Z,6.20
2022-11-02T21:10:29.593Z,6.20
2022-11-02T21:13:10.357Z,6.10
2022-11-02T21:15:36.170Z,6.10
2022-11-02T21:18:01.778Z,6.10
2022-11-02T21:20:40.720Z,6.00
2022-11-02T21:23:05.736Z,6.00
2022-11-02T21:25:31.818Z,5.90
2022-11-02T21:27:55.684Z,5.90
2022-11-02T21:30:20.313Z,5.90
2022-11-02T21:32:44.079Z,5.80
2022-11-02T21:35:08.838Z,5.80
2022-11-02T21:37:32.436Z,5.90
2022-11-02T21:39:55.995Z,5.80
2022-11-02T21:42:20.938Z,5.80
2022-11-02T21:44:44.433Z,5.70
2022-11-02T21:47:08.854Z,5.70
2022-11-02T21:49:32.337Z,5.70
2022-11-02T21:51:56.154Z,5.70
2022-11-02T21:54:19.738Z,5.70
2022-11-02T21:56:43.305Z,5.70
2022-11-02T21:59:09.486Z,5.60
2022-11-02T22:01:47.220Z,5.60
2022-11-02T22:04:12.453Z,5.60
2022-11-02T22:06:37.630Z,5.50
2022-11-02T22:09:02.042Z,5.50
2022-11-02T22:11:28.251Z,5.50
2022-11-02T22:13:53.522Z,5.50
2022-11-02T22:16:20.935Z,5.40
2022-11-02T22:18:45.899Z,5.50
2022-11-02T22:21:09.597Z,5.40
2022-11-02T22:23:33.422Z,5.40
2022-11-02T22:26:00.972Z,5.40
2022-11-02T22:28:24.885Z,5.30
2022-11-02T22:30:48.444Z,5.40
2022-11-02T22:33:13.393Z,5.30
2022-11-02T22:35:38.067Z,5.30
2022-11-02T22:38:18.982Z,5.30
2022-11-02T22:40:42.574Z,5.20
2022-11-02T22:43:06.473Z,5.20
2022-11-02T22:45:30.235Z,5.20
2022-11-02T22:47:53.936Z,5.20
2022-11-02T22:50:21.413Z,5.10
2022-11-02T22:52:47.354Z,5.10
2022-11-02T22:55:11.630Z,5.10
2022-11-02T22:57:35.170Z,5.10
2022-11-02T22:59:58.747Z,5.10
2022-11-02T23:02:22.385Z,5.00
2022-11-02T23:04:45.933Z,5.00
2022-11-02T23:07:11.022Z,5.00
2022-11-02T23:09:34.577Z,5.00
2022-11-02T23:11:57.173Z,4.90
2022-11-02T23:14:21.184Z,4.90
2022-11-02T23:16:47.169Z,4.90
2022-11-02T23:19:28.551Z,4.90
2022-11-02T23:22:09.653Z,4.90
2022-11-02T23:24:52.068Z,4.80
2022-11-02T23:27:15.664Z,4.80
2022-11-02T23:29:56.389Z,4.80
2022-11-02T23:32:27.195Z,4.80
2022-11-02T23:35:08.082Z,4.70
2022-11-02T23:37:32.221Z,4.70
2022-11-02T23:39:57.128Z,4.60
2022-11-02T23:42:20.772Z,4.70
2022-11-02T23:44:44.374Z,4.60
2022-11-02T23:47:07.989Z,4.60
2022-11-02T23:49:31.566Z,4.60
2022-11-02T23:52:12.424Z,4.60
2022-11-02T23:54:53.268Z,4.60
2022-11-02T23:57:18.687Z,4.60
2022-11-02T23:59:42.272Z,4.60
